Time;durP1;ratioP1;P1;durP2;ratioP2;P2;SDS_P1;SDS_P2;PMS_P1;PMS_P2;Temp;Humidity;BMP_temperature;BMP_pressure;BME280_temperature;BME280_humidity;BME280_pressure;Samples;Min_cycle;Max_cycle;Signal;HPM_P1;HPM_P2
2023/07/02 00:02:20;;;;;;;2.70;1.60;;;18.10;99.90;;;18.47;100.00;100206.13;5223431;28;20049;-50
2023/07/02 00:04:52;;;;;;;2.67;1.52;;;18.10;99.90;;;18.48;100.00;100209.63;5223619;28;20063;-51
2023/07/02 00:07:25;;;;;;;1.88;1.20;;;18.10;99.90;;;18.49;100.00;100212.25;5222620;28;20574;-50
2023/07/02 00:09:59;;;;;;;2.70;1.40;;;18.10;99.90;;;18.50;100.00;100214.00;5222003;28;20041;-50
2023/07/02 00:12:32;;;;;;;2.45;1.40;;;18.10;99.90;;;18.49;100.00;100211.38;5223940;28;20056;-50
2023/07/02 00:15:06;;;;;;;2.35;1.40;;;18.10;99.90;;;18.48;100.00;100207.88;5222675;28;20044;-53
2023/07/02 00:17:39;;;;;;;2.63;1.25;;;18.10;99.90;;;18.48;100.00;100205.22;5222756;28;20595;-50
2023/07/02 00:20:14;;;;;;;2.22;1.60;;;18.10;99.90;;;18.48;100.00;100210.50;5223908;28;20454;-50
2023/07/02 00:22:46;;;;;;;;;;;18.10;99.90;;;18.47;100.00;100205.25;5223850;28;20087;-51
2023/07/02 00:25:20;;;;;;;2.25;1.20;;;18.10;99.90;;;18.47;100.00;100205.25;5236620;28;19928;-51
2023/07/02 00:27:52;;;;;;;2.85;1.42;;;18.10;99.90;;;18.46;100.00;100212.28;5238005;28;20052;-49
2023/07/02 00:30:25;;;;;;;3.35;1.42;;;18.10;99.90;;;18.45;100.00;100210.50;5213524;28;20498;-51
2023/07/02 00:33:00;;;;;;;2.25;1.67;;;18.20;99.90;;;18.44;100.00;100208.75;5234561;28;20049;-50
2023/07/02 00:35:32;;;;;;;2.97;1.40;;;18.10;99.90;;;18.44;100.00;100214.03;5215055;28;20056;-52
2023/07/02 00:38:05;;;;;;;2.78;1.40;;;18.10;99.90;;;18.43;100.00;100217.56;5211168;28;20519;-52
2023/07/02 00:40:39;;;;;;;1.98;1.40;;;18.10;99.90;;;18.42;100.00;100216.69;5216214;28;20057;-50
2023/07/02 00:43:14;;;;;;;2.90;1.40;;;18.10;99.90;;;18.43;100.00;100220.22;5223995;28;20084;-51
2023/07/02 00:45:46;;;;;;;2.80;1.33;;;18.10;99.90;;;18.41;100.00;100216.72;5216855;28;20052;-52
2023/07/02 00:48:19;;;;;;;1.58;1.30;;;18.10;99.90;;;18.38;100.00;100217.59;5223151;28;20049;-50
2023/07/02 00:50:51;;;;;;;2.35;1.40;;;18.10;99.90;;;18.39;100.00;100215.88;5224047;28;20043;-51
2023/07/02 00:53:27;;;;;;;2.75;1.40;;;18.10;99.90;;;18.36;100.00;100210.59;5223543;28;20152;-50
2023/07/02 00:56:01;;;;;;;3.10;1.45;;;18.10;99.90;;;18.34;100.00;100207.97;5223791;28;20049;-51
2023/07/02 00:58:36;;;;;;;2.60;1.50;;;18.10;99.90;;;18.32;100.00;100216.75;5223035;28;20143;-51
2023/07/02 01:01:09;;;;;;;2.67;1.63;;;18.00;99.90;;;18.31;100.00;100209.72;5222783;28;20045;-51
2023/07/02 01:03:53;;;;;;;3.10;1.48;;;18.00;99.90;;;18.29;100.00;100214.16;5223447;28;20063;-51
2023/07/02 01:06:28;;;;;;;3.08;1.60;;;18.00;99.90;;;18.28;100.00;100204.47;5223106;28;20136;-51
2023/07/02 01:09:03;;;;;;;3.25;1.60;;;18.00;99.90;;;18.26;100.00;100212.41;5223183;28;20049;-52
2023/07/02 01:11:42;;;;;;;4.15;1.70;;;18.00;99.90;;;18.27;100.00;100215.94;5222849;28;20044;-51
2023/07/02 01:14:17;;;;;;;3.05;1.67;;;18.00;99.90;;;18.26;100.00;100208.91;5223347;28;20518;-51
2023/07/02 01:16:51;;;;;;;2.92;1.77;;;17.90;99.90;;;18.25;100.00;100208.00;5215502;28;20528;-51
2023/07/02 01:19:41;;;;;;;3.95;1.55;;;17.90;99.90;;;18.24;100.00;100215.94;5222627;28;20410;-51
2023/07/02 01:22:14;;;;;;;3.83;1.77;;;17.90;99.90;;;18.23;100.00;100214.19;5222975;28;20049;-50
2023/07/02 01:24:48;;;;;;;4.88;2.03;;;17.90;99.90;;;18.24;100.00;100208.00;5215027;28;20482;-51
2023/07/02 01:27:21;;;;;;;4.72;1.92;;;17.90;99.90;;;18.23;100.00;100208.91;5222686;28;20044;-49
2023/07/02 01:29:54;;;;;;;4.45;2.03;;;17.90;99.90;;;18.20;100.00;100216.84;5222734;28;20048;-51
2023/07/02 01:32:27;;;;;;;4.75;2.08;;;17.90;99.90;;;18.20;100.00;100206.31;5221685;28;20377;-51
2023/07/02 01:35:01;;;;;;;5.05;2.72;;;17.90;99.90;;;18.19;100.00;100218.59;5222863;28;20111;-50
2023/07/02 01:37:37;;;;;;;4.35;2.22;;;17.90;99.90;;;18.18;100.00;100217.72;5222105;28;20152;-51
2023/07/02 01:40:10;;;;;;;5.80;2.45;;;17.90;99.90;;;18.18;100.00;100212.44;5222685;28;20140;-52
2023/07/02 01:42:42;;;;;;;5.30;2.45;;;17.90;99.90;;;18.18;100.00;100214.19;5222380;28;20510;-50
2023/07/02 01:45:15;;;;;;;7.95;2.50;;;17.90;99.90;;;18.19;100.00;100210.66;5223203;28;20059;-50
2023/07/02 01:47:47;;;;;;;5.15;2.05;;;17.90;99.90;;;18.18;100.00;100212.44;5222454;28;20513;-50
2023/07/02 01:50:21;;;;;;;6.43;2.53;;;17.90;99.90;;;18.18;100.00;100216.84;5222048;28;20144;-51
2023/07/02 01:52:54;;;;;;;5.63;2.72;;;17.90;99.90;;;18.18;100.00;100216.84;5222496;28;20064;-51
2023/07/02 01:55:26;;;;;;;6.53;2.80;;;17.90;99.90;;;18.18;100.00;100216.84;5222381;28;20132;-51
2023/07/02 01:57:59;;;;;;;5.38;2.47;;;17.90;99.90;;;18.16;100.00;100213.34;5222370;28;20059;-50
2023/07/02 02:00:31;;;;;;;6.68;2.95;;;17.80;99.90;;;18.15;100.00;100216.88;5221568;28;20041;-50
2023/07/02 02:03:05;;;;;;;5.60;2.47;;;17.80;99.90;;;18.13;100.00;100219.53;5221859;28;20059;-50
2023/07/02 02:05:39;;;;;;;10.65;3.00;;;17.80;99.90;;;18.11;100.00;100213.34;5221974;28;20506;-50
2023/07/02 02:08:11;;;;;;;7.57;2.80;;;17.90;99.90;;;18.10;100.00;100216.00;5223365;28;20037;-50
2023/07/02 02:10:44;;;;;;;7.10;2.83;;;17.80;99.90;;;18.09;100.00;100223.03;5221252;28;20041;-52
2023/07/02 02:13:17;;;;;;;5.90;2.65;;;17.80;99.90;;;18.08;100.00;100230.97;5222031;28;20136;-51
2023/07/02 02:15:50;;;;;;;7.28;2.60;;;17.80;99.90;;;18.08;100.00;100226.56;5221979;28;20056;-50
2023/07/02 02:18:22;;;;;;;8.85;3.08;;;17.80;99.90;;;18.08;100.00;100223.94;5221443;28;20143;-50
2023/07/02 02:20:56;;;;;;;5.78;2.42;;;17.80;99.90;;;18.07;100.00;100230.09;5221879;28;20041;-51
2023/07/02 02:23:28;;;;;;;5.28;2.65;;;17.80;99.90;;;18.06;100.00;100233.63;5221733;28;20136;-50
2023/07/02 02:26:01;;;;;;;6.25;2.75;;;17.80;99.90;;;18.05;100.00;100231.84;5221840;28;20037;-53
2023/07/02 02:28:33;;;;;;;5.05;2.45;;;17.80;99.90;;;18.06;100.00;100231.00;5221193;28;20045;-51
2023/07/02 02:31:06;;;;;;;4.78;2.10;;;17.80;99.90;;;18.05;100.00;100231.84;5221743;28;20073;-51
2023/07/02 02:33:39;;;;;;;5.72;2.63;;;17.70;99.90;;;18.04;100.00;100231.84;5221572;28;20059;-50
2023/07/02 02:36:13;;;;;;;6.75;2.40;;;17.70;99.90;;;18.04;100.00;100238.00;5221788;28;20045;-51
2023/07/02 02:38:46;;;;;;;6.18;2.72;;;17.70;99.90;;;18.02;100.00;100231.88;5221304;28;20040;-51
2023/07/02 02:41:19;;;;;;;7.18;2.95;;;17.70;99.90;;;18.01;100.00;100235.41;5221882;28;20525;-51
2023/07/02 02:43:56;;;;;;;7.88;3.13;;;17.70;99.90;;;18.00;100.00;100241.56;5214304;28;20481;-51
2023/07/02 02:46:29;;;;;;;5.50;2.67;;;17.70;99.90;;;17.99;100.00;100234.50;5221347;28;20045;-50
2023/07/02 02:49:01;;;;;;;6.82;2.72;;;17.70;99.90;;;17.97;100.00;100233.66;5221279;28;20646;-52
2023/07/02 02:51:35;;;;;;;7.35;3.03;;;17.70;99.90;;;17.95;100.00;100232.78;5221119;28;20064;-51
2023/07/02 02:54:08;;;;;;;8.50;3.45;;;17.70;99.90;;;17.93;100.00;100237.19;5221559;28;20414;-52
2023/07/02 02:56:40;;;;;;;6.10;2.70;;;17.60;99.90;;;17.90;100.00;100235.44;5221479;28;20510;-51
2023/07/02 02:59:12;;;;;;;6.20;2.67;;;17.70;99.90;;;17.87;100.00;100232.81;5221346;28;20136;-50
2023/07/02 03:01:45;;;;;;;6.18;2.50;;;17.60;99.90;;;17.86;100.00;100238.06;5220830;28;20057;-50
2023/07/02 03:04:18;;;;;;;5.97;2.75;;;17.60;99.90;;;17.85;100.00;100238.97;5221385;28;20041;-51
2023/07/02 03:06:53;;;;;;;7.05;2.65;;;17.60;99.90;;;17.83;100.00;100235.47;5220834;28;20044;-51
2023/07/02 03:09:28;;;;;;;5.80;2.65;;;17.60;99.90;;;17.80;100.00;100240.72;5220765;28;20051;-50
2023/07/02 03:12:01;;;;;;;8.00;3.00;;;17.60;99.90;;;17.76;100.00;100244.28;5220020;28;20037;-51
2023/07/02 03:14:34;;;;;;;11.38;3.20;;;17.50;99.90;;;17.71;100.00;100236.38;5220976;28;20049;-50
2023/07/02 03:17:06;;;;;;;7.40;2.92;;;17.50;99.90;;;17.71;100.00;100227.56;5221068;28;20052;-51
2023/07/02 03:19:39;;;;;;;8.48;3.45;;;17.50;99.90;;;17.71;100.00;100235.47;5220939;28;20068;-51
2023/07/02 03:22:12;;;;;;;9.88;3.55;;;17.40;99.90;;;17.74;100.00;100246.06;5221422;28;20063;-50
2023/07/02 03:24:45;;;;;;;10.65;3.50;;;17.50;99.90;;;17.75;100.00;100237.25;5221213;28;20049;-50
2023/07/02 03:27:20;;;;;;;9.60;3.97;;;17.50;99.90;;;17.73;100.00;100249.53;5221143;28;20072;-51
2023/07/02 03:29:53;;;;;;;7.93;3.95;;;17.50;99.90;;;17.72;100.00;100248.66;5220826;28;20044;-50
2023/07/02 03:32:26;;;;;;;8.07;3.55;;;17.40;99.90;;;17.71;100.00;100253.91;5220483;28;20036;-51
2023/07/02 03:34:58;;;;;;;8.23;3.60;;;17.50;99.90;;;17.70;100.00;100262.72;5213289;28;20564;-51
2023/07/02 03:37:32;;;;;;;9.05;3.72;;;17.40;99.90;;;17.72;100.00;100274.16;5220286;28;20076;-50
2023/07/02 03:40:06;;;;;;;9.65;3.80;;;17.40;99.90;;;17.71;100.00;100267.09;5220816;28;20052;-49
2023/07/02 03:42:38;;;;;;;10.02;4.07;;;17.50;99.90;;;17.70;100.00;100268.84;5220525;28;20090;-51
2023/07/02 03:45:11;;;;;;;9.88;3.85;;;17.50;99.90;;;17.70;100.00;100270.63;5220821;28;20052;-50
2023/07/02 03:47:44;;;;;;;7.72;3.75;;;17.40;99.90;;;17.72;100.00;100274.16;5219902;28;20049;-52
2023/07/02 03:50:16;;;;;;;9.57;3.40;;;17.40;99.90;;;17.73;100.00;100281.19;5220930;28;20497;-51
2023/07/02 03:52:50;;;;;;;9.00;3.42;;;17.50;99.90;;;17.74;100.00;100275.91;5220522;28;20498;-50
2023/07/02 03:55:22;;;;;;;10.27;4.60;;;17.50;99.90;;;17.73;100.00;100279.41;5214191;28;20056;-52
2023/07/02 03:57:55;;;;;;;9.05;3.67;;;17.50;99.90;;;17.71;100.00;100286.47;5220210;28;20060;-50
2023/07/02 04:00:27;;;;;;;10.07;3.92;;;17.50;99.90;;;17.71;100.00;100290.81;5221126;28;20127;-51
2023/07/02 04:02:59;;;;;;;6.97;3.35;;;17.50;99.90;;;17.73;100.00;100289.97;5212460;28;20414;-49
2023/07/02 04:05:32;;;;;;;8.23;3.85;;;17.50;99.90;;;17.76;100.00;100294.38;5220408;28;20426;-50
2023/07/02 04:08:06;;;;;;;9.25;3.67;;;17.50;99.90;;;17.80;100.00;100289.09;5220299;28;20829;-50
2023/07/02 04:10:38;;;;;;;8.05;3.80;;;17.50;99.90;;;17.84;100.00;100295.22;5220031;28;20122;-50
2023/07/02 04:13:11;;;;;;;9.93;4.15;;;17.60;99.90;;;17.88;100.00;100296.97;5220508;28;20041;-50
2023/07/02 04:15:43;;;;;;;11.07;4.35;;;17.60;99.90;;;17.87;100.00;100297.84;5220423;28;20056;-51
2023/07/02 04:18:16;;;;;;;10.40;4.57;;;17.60;99.90;;;17.89;100.00;100298.72;5220344;28;20044;-49
2023/07/02 04:20:48;;;;;;;13.68;4.82;;;17.60;99.90;;;17.93;100.00;100305.75;5220178;28;20095;-51
2023/07/02 04:23:22;;;;;;;13.38;5.18;;;17.60;99.90;;;17.94;100.00;100306.63;5222257;28;20043;-49
2023/07/02 04:25:54;;;;;;;10.48;4.90;;;17.60;99.90;;;17.95;100.00;100314.53;5224144;28;20414;-50
2023/07/02 04:28:27;;;;;;;13.05;5.13;;;17.70;99.90;;;17.96;100.00;100305.72;5224048;28;20044;-50
2023/07/02 04:30:59;;;;;;;12.18;4.93;;;17.70;99.90;;;17.97;100.00;100310.13;5223900;28;20154;-51
2023/07/02 04:33:35;;;;;;;14.68;5.60;;;17.60;99.90;;;17.97;100.00;100307.47;5223719;28;20410;-51
2023/07/02 04:36:08;;;;;;;16.67;6.10;;;17.70;99.90;;;17.99;100.00;100320.66;5224629;28;20118;-51
2023/07/02 04:38:42;;;;;;;13.95;6.18;;;17.70;99.90;;;17.96;100.00;100318.91;5224910;28;20045;-50
2023/07/02 04:41:14;;;;;;;16.52;6.40;;;17.70;99.90;;;17.98;100.00;100322.41;5223911;28;20049;-51
2023/07/02 04:43:50;;;;;;;11.93;5.55;;;17.70;99.90;;;17.98;100.00;100319.78;5224985;28;20053;-50
2023/07/02 04:46:22;;;;;;;14.35;5.95;;;17.70;99.90;;;18.01;100.00;100325.06;5223822;28;20048;-52
2023/07/02 04:48:55;;;;;;;14.52;5.80;;;17.70;99.90;;;18.00;100.00;100331.22;5223525;28;20072;-51
2023/07/02 04:51:30;;;;;;;18.80;7.20;;;17.70;99.90;;;18.01;100.00;100335.59;5223900;28;20426;-51
2023/07/02 04:54:04;;;;;;;16.95;6.85;;;17.70;99.90;;;18.02;100.00;100331.22;5216207;28;20048;-50
2023/07/02 04:56:37;;;;;;;16.50;6.35;;;17.70;99.90;;;18.00;100.00;100325.94;5223384;28;20529;-51
2023/07/02 04:59:09;;;;;;;15.32;6.05;;;17.70;99.90;;;18.02;100.00;100337.34;5223637;28;20044;-50
2023/07/02 05:01:41;;;;;;;16.40;7.00;;;17.70;99.90;;;18.05;100.00;100336.47;5222824;28;20045;-51
2023/07/02 05:04:14;;;;;;;17.77;7.47;;;17.80;99.90;;;18.07;100.00;100340.88;5223665;28;20048;-51
2023/07/02 05:06:46;;;;;;;15.85;7.40;;;17.80;99.90;;;18.10;100.00;100335.56;5223106;28;20056;-51
2023/07/02 05:09:20;;;;;;;19.10;7.72;;;17.80;99.90;;;18.14;100.00;100334.69;5223321;28;20045;-50
2023/07/02 05:11:56;;;;;;;21.75;7.70;;;17.80;99.90;;;18.17;100.00;100337.28;5222832;28;20048;-51
2023/07/02 05:14:28;;;;;;;18.02;7.28;;;17.90;99.90;;;18.21;100.00;100340.81;5223654;28;20502;-50
2023/07/02 05:17:00;;;;;;;18.75;7.28;;;17.90;99.90;;;18.24;100.00;100343.44;5222868;28;20049;-50
2023/07/02 05:19:33;;;;;;;17.40;7.00;;;18.00;99.90;;;18.28;100.00;100346.94;5223078;28;20045;-53
2023/07/02 05:22:05;;;;;;;16.73;7.07;;;18.00;99.90;;;18.32;100.00;100356.59;5223385;28;20045;-51
2023/07/02 05:24:40;;;;;;;17.17;7.35;;;18.00;99.90;;;18.34;100.00;100353.06;5222841;28;20061;-50
2023/07/02 05:27:13;;;;;;;16.60;7.30;;;18.00;99.90;;;18.38;100.00;100359.19;5223001;28;20122;-51
2023/07/02 05:29:45;;;;;;;18.80;8.07;;;18.10;99.90;;;18.41;100.00;100364.47;5222556;28;20047;-51
2023/07/02 05:32:17;;;;;;;18.65;7.78;;;18.10;99.90;;;18.44;100.00;100356.53;5222937;28;20402;-50
2023/07/02 05:34:50;;;;;;;18.65;7.45;;;18.10;99.90;;;18.47;100.00;100356.53;5221889;28;20441;-50
2023/07/02 05:37:22;;;;;;;18.98;7.78;;;18.10;99.90;;;18.53;100.00;100355.66;5222909;28;20406;-51
2023/07/02 05:39:56;;;;;;;19.30;8.05;;;18.20;99.90;;;18.55;100.00;100360.03;5222072;28;20057;-51
2023/07/02 05:42:28;;;;;;;21.00;8.55;;;18.20;99.90;;;18.58;100.00;100362.66;5222864;28;20505;-50
2023/07/02 05:45:01;;;;;;;18.95;7.65;;;18.30;99.90;;;18.60;100.00;100363.53;5222526;28;20045;-50
2023/07/02 05:47:33;;;;;;;19.02;8.30;;;18.30;99.90;;;18.61;100.00;100367.91;5222792;28;20140;-51
2023/07/02 05:50:08;;;;;;;19.48;8.35;;;18.30;99.90;;;18.63;100.00;100367.91;5222594;28;20044;-51
2023/07/02 05:52:40;;;;;;;20.83;8.48;;;18.30;99.90;;;18.66;100.00;100373.19;5222129;28;20061;-51
2023/07/02 05:55:14;;;;;;;20.15;8.20;;;18.30;99.90;;;18.68;100.00;100377.59;5222804;28;20048;-50
2023/07/02 05:57:49;;;;;;;20.95;8.68;;;18.30;99.90;;;18.73;100.00;100379.34;5221892;28;20375;-50
2023/07/02 06:00:22;;;;;;;19.58;8.40;;;18.40;99.90;;;18.76;100.00;100381.94;5222462;28;20525;-50
2023/07/02 06:02:54;;;;;;;19.33;8.02;;;18.40;99.90;;;18.75;100.00;100385.47;5221892;28;20052;-50
2023/07/02 06:05:27;;;;;;;21.80;8.88;;;18.40;99.90;;;18.71;100.00;100381.97;5222517;28;20055;-51
2023/07/02 06:07:59;;;;;;;19.20;8.43;;;18.40;99.90;;;18.70;100.00;100389.00;5221825;28;20044;-50
2023/07/02 06:10:33;;;;;;;20.08;8.57;;;18.40;99.90;;;18.76;100.00;100389.88;5222446;28;20416;-50
2023/07/02 06:13:05;;;;;;;18.25;8.68;;;18.40;99.90;;;18.81;100.00;100388.09;5221953;28;20044;-50
2023/07/02 06:15:38;;;;;;;16.30;7.30;;;18.50;99.90;;;18.86;100.00;100397.75;5221992;28;20060;-49
2023/07/02 06:18:10;;;;;;;21.27;8.38;;;18.50;99.90;;;18.91;100.00;100400.38;5221802;28;20524;-50
2023/07/02 06:20:43;;;;;;;17.73;7.80;;;18.50;99.90;;;18.95;100.00;100391.53;5221691;28;20051;-52
2023/07/02 06:23:15;;;;;;;21.35;8.45;;;18.60;99.90;;;18.99;100.00;100395.91;5222394;28;20071;-50
2023/07/02 06:25:51;;;;;;;19.63;7.93;;;18.60;99.90;;;19.04;100.00;100401.16;5221642;28;20053;-51
2023/07/02 06:28:24;;;;;;;21.20;7.85;;;18.70;99.90;;;19.09;100.00;100394.94;5221943;28;20095;-51
2023/07/02 06:30:56;;;;;;;17.92;7.88;;;18.70;99.90;;;19.14;100.00;100403.72;5221391;28;20052;-50
2023/07/02 06:33:28;;;;;;;20.67;8.70;;;18.70;99.90;;;19.18;100.00;100401.97;5222008;28;20041;-51
2023/07/02 06:36:01;;;;;;;17.05;7.60;;;18.80;99.90;;;19.24;100.00;100405.44;5221352;28;20060;-50
2023/07/02 06:38:33;;;;;;;21.52;8.50;;;18.80;99.90;;;19.36;100.00;100403.59;5221686;28;20044;-48
2023/07/02 06:41:07;;;;;;;22.65;8.30;;;18.90;99.90;;;19.43;100.00;100411.47;5222083;28;20053;-49
2023/07/02 06:43:39;;;;;;;19.45;8.30;;;19.00;99.90;;;19.52;100.00;100410.53;5221980;28;20045;-48
2023/07/02 06:46:12;;;;;;;19.95;8.63;;;19.10;99.90;;;19.59;100.00;100406.09;5214058;28;20052;-48
2023/07/02 06:48:45;;;;;;;21.45;7.95;;;19.20;99.90;;;19.65;100.00;100417.50;5221310;28;20441;-48
2023/07/02 06:51:18;;;;;;;18.70;7.75;;;19.20;99.90;;;19.72;100.00;100413.03;5221520;28;20053;-49
2023/07/02 06:53:50;;;;;;;18.65;7.28;;;19.30;99.90;;;19.72;100.00;100416.56;5223359;28;20112;-48
2023/07/02 06:56:24;;;;;;;20.00;8.23;;;19.40;99.90;;;19.73;100.00;100415.66;5222110;28;20049;-48
2023/07/02 06:58:56;;;;;;;19.90;7.68;;;19.40;99.90;;;19.74;100.00;100422.69;5221144;28;20059;-48
2023/07/02 07:01:29;;;;;;;22.77;8.32;;;19.40;99.90;;;19.79;100.00;100426.19;5221355;28;20513;-47
2023/07/02 07:04:04;;;;;;;19.10;8.45;;;19.40;99.90;;;19.81;100.00;100427.94;5221212;28;20037;-48
2023/07/02 07:06:37;;;;;;;18.23;8.00;;;19.40;99.90;;;19.83;100.00;100436.75;5221483;28;20445;-50
2023/07/02 07:09:09;;;;;;;22.30;7.95;;;19.40;99.90;;;20.02;100.00;100435.69;5218984;28;20577;-49
2023/07/02 07:11:43;;;;;;;19.25;7.68;;;19.60;99.90;;;20.22;100.00;100436.38;5222355;28;20049;-49
2023/07/02 07:14:16;;;;;;;21.90;7.93;;;19.80;99.90;;;20.51;100.00;100440.50;5221028;28;20037;-50
2023/07/02 07:16:48;;;;;;;19.10;7.82;;;20.00;99.90;;;20.70;98.16;100442.03;5221195;28;20048;-49
2023/07/02 07:19:21;;;;;;;18.80;7.50;;;20.20;99.90;;;20.85;96.72;100441.81;5221141;28;20072;-48
2023/07/02 07:21:53;;;;;;;16.45;7.22;;;20.40;99.90;;;21.07;95.85;100439.78;5220539;28;20075;-49
2023/07/02 07:24:25;;;;;;;22.50;8.38;;;20.60;99.90;;;21.31;94.70;100443.88;5221082;28;20041;-49
2023/07/02 07:26:59;;;;;;;22.77;8.90;;;20.70;99.90;;;21.43;93.07;100439.28;5220668;28;20053;-50
2023/07/02 07:29:32;;;;;;;19.05;7.50;;;20.90;99.90;;;21.50;93.28;100436.53;5221140;28;20045;-50
2023/07/02 07:32:05;;;;;;;16.90;7.80;;;21.00;99.90;;;21.60;92.67;100446.09;5220694;28;20052;-49
2023/07/02 07:34:37;;;;;;;21.27;8.77;;;21.00;99.90;;;21.69;92.22;100453.03;5221165;28;21056;-50
2023/07/02 07:37:10;;;;;;;19.45;8.32;;;21.10;99.90;;;21.72;92.20;100444.16;5220678;28;20744;-49
2023/07/02 07:39:42;;;;;;;17.75;8.35;;;21.20;99.90;;;21.68;92.11;100448.63;5220884;28;20048;-49
2023/07/02 07:42:17;;;;;;;20.90;8.43;;;21.20;99.90;;;21.67;91.30;100457.47;5220610;28;20143;-49
2023/07/02 07:44:50;;;;;;;18.67;8.32;;;21.20;99.90;;;21.67;90.60;100455.72;5220596;28;20395;-50
2023/07/02 07:47:22;;;;;;;22.58;8.80;;;21.20;99.90;;;21.63;89.98;100450.47;5220939;28;20056;-49
2023/07/02 07:49:57;;;;;;;19.38;8.05;;;21.10;99.60;;;21.65;89.66;100459.28;5220573;28;20536;-50
2023/07/02 07:52:30;;;;;;;19.30;8.20;;;21.10;99.50;;;21.68;89.54;100451.28;5221096;28;20143;-48
2023/07/02 07:55:02;;;;;;;21.10;8.52;;;21.10;99.40;;;21.75;89.39;100454.69;5221440;28;20076;-47
2023/07/02 07:57:38;;;;;;;18.25;7.90;;;21.20;99.40;;;21.84;88.69;100450.13;5221674;28;20506;-47
2023/07/02 08:00:12;;;;;;;17.77;8.13;;;21.20;99.10;;;21.92;87.71;100442.91;5225606;28;20059;-47
2023/07/02 08:02:52;;;;;;;20.02;8.07;;;21.30;98.80;;;21.99;86.98;100459.59;5225473;28;20136;-47
2023/07/02 08:05:24;;;;;;;19.35;7.90;;;21.40;98.60;;;22.18;86.49;100465.50;5225550;28;20139;-49
2023/07/02 08:07:57;;;;;;;17.95;7.88;;;21.50;98.40;;;22.34;85.32;100466.97;5225465;28;20079;-48
2023/07/02 08:10:29;;;;;;;20.58;8.23;;;21.60;98.00;;;22.71;84.03;100455.63;5225502;28;20049;-48
2023/07/02 08:13:03;;;;;;;16.77;8.13;;;21.80;97.70;;;23.22;82.27;100469.63;5225317;28;20041;-48
2023/07/02 08:15:35;;;;;;;16.83;7.07;;;22.20;97.30;;;23.53;80.20;100471.56;5225497;28;20060;-48
2023/07/02 08:18:09;;;;;;;18.55;7.40;;;22.40;96.30;;;23.39;79.04;100466.56;5225424;28;20057;-48
2023/07/02 08:20:41;;;;;;;17.73;7.38;;;22.40;95.60;;;22.99;78.73;100482.53;5224809;28;20585;-49
2023/07/02 08:23:14;;;;;;;17.08;6.57;;;22.20;95.00;;;22.65;80.11;100466.38;5225105;28;20052;-50
2023/07/02 08:25:46;;;;;;;15.73;7.20;;;22.00;95.10;;;22.40;80.90;100476.59;5225057;28;20628;-49
2023/07/02 08:28:23;;;;;;;18.70;7.03;;;21.80;95.30;;;22.16;81.10;100483.22;5225140;28;20436;-51
2023/07/02 08:30:55;;;;;;;17.38;6.78;;;21.70;95.30;;;21.92;81.00;100484.50;5225376;28;20044;-50
2023/07/02 08:33:28;;;;;;;18.38;7.38;;;21.40;95.00;;;21.79;81.26;100486.47;5224982;28;20429;-48
2023/07/02 08:36:01;;;;;;;17.20;6.97;;;21.30;95.20;;;21.77;81.12;100485.59;5225275;28;20513;-49
2023/07/02 08:38:33;;;;;;;13.93;6.10;;;21.20;95.00;;;21.82;80.64;100488.19;5225034;28;20095;-50
2023/07/02 08:41:06;;;;;;;15.80;6.47;;;21.30;95.00;;;21.87;80.01;100484.56;5225003;28;20063;-50
2023/07/02 08:43:40;;;;;;;17.33;7.00;;;21.30;94.70;;;21.94;79.80;100488.88;5224835;28;20049;-50
2023/07/02 08:46:13;;;;;;;14.15;6.07;;;21.30;94.60;;;21.99;79.02;100480.84;5224749;28;20060;-50
2023/07/02 08:48:46;;;;;;;18.02;6.82;;;21.40;94.30;;;21.93;79.06;100497.72;5224555;28;20045;-50
2023/07/02 08:51:18;;;;;;;18.60;7.00;;;21.30;94.00;;;21.79;79.33;100483.81;5224522;28;20049;-49
2023/07/02 08:53:50;;;;;;;18.65;7.55;;;21.20;93.90;;;21.67;79.86;100490.19;5224475;28;20047;-49
2023/07/02 08:56:23;;;;;;;19.48;7.68;;;21.20;94.10;;;21.57;80.36;100499.16;5223638;28;20052;-47
2023/07/02 08:58:57;;;;;;;17.60;7.20;;;21.10;94.20;;;21.50;81.17;100491.34;5223302;28;20045;-47
2023/07/02 09:01:29;;;;;;;16.88;6.82;;;21.00;94.70;;;21.46;81.57;100498.47;5223321;28;20045;-47
2023/07/02 09:04:02;;;;;;;15.25;6.38;;;21.00;94.60;;;21.38;81.61;100503.84;5224840;28;20087;-47
2023/07/02 09:06:34;;;;;;;18.17;7.63;;;20.90;94.60;;;21.32;81.89;100496.03;5224106;28;20041;-46
2023/07/02 09:09:07;;;;;;;17.58;7.53;;;20.80;94.70;;;21.29;82.51;100498.69;5221577;28;20506;-47
2023/07/02 09:11:49;;;;;;;16.92;6.63;;;20.80;94.90;;;21.23;82.84;100505.81;5223615;28;20055;-46
2023/07/02 09:14:28;;;;;;;17.92;7.22;;;20.80;95.00;;;21.19;83.21;100499.72;5223097;28;20463;-47
2023/07/02 09:17:09;;;;;;;15.82;6.70;;;20.70;95.20;;;21.27;83.27;100500.47;5223312;28;20134;-47
2023/07/02 09:19:51;;;;;;;17.55;7.43;;;20.70;95.20;;;21.44;83.04;100502.91;5224753;28;20045;-47
2023/07/02 09:22:27;;;;;;;17.08;6.93;;;20.90;95.30;;;21.51;83.17;100499.25;5225229;28;20087;-47
2023/07/02 09:25:01;;;;;;;18.80;7.82;;;20.90;95.30;;;21.60;83.55;100503.56;5224685;28;20064;-47
2023/07/02 09:27:38;;;;;;;16.88;7.60;;;21.00;95.40;;;21.64;83.68;100511.44;5223491;28;20059;-47
2023/07/02 09:30:15;;;;;;;16.85;7.28;;;21.10;95.40;;;21.66;83.71;100500.81;5223373;28;20041;-47
2023/07/02 09:32:48;;;;;;;19.17;7.90;;;21.10;95.40;;;21.74;83.98;100506.00;5223122;28;20414;-47
2023/07/02 09:35:20;;;;;;;21.58;8.77;;;21.20;95.50;;;21.79;84.47;100505.03;5222644;28;20045;-47
2023/07/02 09:37:53;;;;;;;17.73;8.10;;;21.20;95.70;;;22.00;84.29;100506.47;5234963;28;20088;-46
2023/07/02 09:40:28;;;;;;;15.82;7.15;;;21.30;95.80;;;22.16;83.38;100499.13;5214732;28;20136;-47
2023/07/02 09:43:01;;;;;;;19.17;8.55;;;21.50;95.50;;;22.25;82.50;100500.78;5222385;28;20052;-47
2023/07/02 09:45:35;;;;;;;18.70;7.60;;;21.60;95.10;;;22.34;82.24;100504.13;5222915;28;20544;-47
2023/07/02 09:48:13;;;;;;;16.27;7.68;;;21.60;95.00;;;22.39;81.70;100507.59;5214110;28;20052;-47
2023/07/02 09:50:46;;;;;;;18.33;7.47;;;21.70;94.60;;;22.40;80.47;100508.47;5223336;28;20045;-50
2023/07/02 09:53:19;;;;;;;17.52;7.53;;;21.70;94.20;;;22.32;79.82;100500.63;5223247;28;20049;-48
2023/07/02 09:55:51;;;;;;;17.73;7.55;;;21.70;93.70;;;22.24;79.64;100501.69;5223180;28;20052;-49
2023/07/02 09:58:24;;;;;;;15.93;6.63;;;21.70;93.50;;;22.08;79.55;100507.22;5223372;28;20049;-51
2023/07/02 10:00:57;;;;;;;17.77;7.25;;;21.60;93.30;;;21.91;80.35;100507.50;5223322;28;20048;-50
2023/07/02 10:03:31;;;;;;;17.40;7.10;;;21.40;93.50;;;21.76;81.20;100504.19;5223599;28;20044;-50
2023/07/02 10:06:05;;;;;;;14.88;6.82;;;21.30;93.80;;;21.71;82.00;100503.38;5222981;28;20052;-50
2023/07/02 10:08:38;;;;;;;21.23;7.90;;;21.20;94.20;;;21.78;82.75;100507.69;5223105;28;20455;-50
2023/07/02 10:11:12;;;;;;;16.23;7.53;;;21.20;94.40;;;21.96;82.03;100502.09;5222761;28;20048;-50
2023/07/02 10:13:45;;;;;;;;;;;21.30;94.40;;;22.12;82.52;100500.13;5223180;28;20524;-50
2023/07/02 10:16:20;;;;;;;16.80;6.88;;;21.50;94.50;;;22.35;82.32;100510.31;5222910;28;19932;-50
2023/07/02 10:18:52;;;;;;;16.52;7.10;;;21.70;94.60;;;22.49;81.40;100508.28;5222848;28;20059;-49
2023/07/02 10:21:24;;;;;;;18.40;7.43;;;21.80;94.30;;;22.57;80.63;100494.88;5222236;28;20045;-49
2023/07/02 10:23:57;;;;;;;16.25;6.95;;;21.90;93.90;;;22.66;81.64;100492.03;5223175;28;20041;-49
2023/07/02 10:26:29;;;;;;;19.77;7.53;;;22.00;94.20;;;22.74;81.09;100498.06;5222811;28;20057;-49
2023/07/02 10:29:02;;;;;;;20.55;7.75;;;22.00;94.00;;;22.70;80.71;100491.06;5222936;28;20453;-49
2023/07/02 10:31:36;;;;;;;17.10;7.47;;;22.10;93.60;;;22.79;80.93;100501.50;5222122;28;20140;-49